Time;durP1;ratioP1;P1;durP2;ratioP2;P2;SDS_P1;SDS_P2;PMS_P1;PMS_P2;Temp;Humidity;BMP_temperature;BMP_pressure;BME280_temperature;BME280_humidity;BME280_pressure;Samples;Min_cycle;Max_cycle;Signal;HPM_P1;HPM_P2
2022/07/22 00:05:55;;;;;;;15.68;10.90;;;;;;;19.87;100.00;100751.09;20913149;28;20045;-81
2022/07/22 00:15:56;;;;;;;12.52;9.65;;;;;;;19.83;100.00;100756.63;20898063;28;20053;-81
2022/07/22 00:25:58;;;;;;;13.30;9.57;;;;;;;19.66;100.00;100755.66;20914557;28;20095;-81
2022/07/22 00:35:59;;;;;;;15.85;10.60;;;;;;;19.50;100.00;100752.00;20888446;28;20514;-81
2022/07/22 00:46:01;;;;;;;13.30;10.35;;;;;;;19.41;100.00;100741.81;20921471;28;20061;-82
2022/07/22 00:56:03;;;;;;;14.25;10.82;;;;;;;19.32;100.00;100751.06;20916258;28;20541;-82
2022/07/22 01:06:04;;;;;;;14.65;9.77;;;;;;;19.28;100.00;100740.63;20912420;28;20120;-82
2022/07/22 01:16:05;;;;;;;13.82;10.27;;;;;;;19.01;100.00;100740.97;21005556;28;20040;-84
2022/07/22 01:26:07;;;;;;;17.42;10.38;;;;;;;18.94;100.00;100737.72;21016964;28;20072;-84
2022/07/22 01:36:10;;;;;;;13.32;9.75;;;;;;;18.79;100.00;100746.38;21036473;28;20496;-83
2022/07/22 01:46:14;;;;;;;15.50;11.57;;;;;;;18.84;100.00;100743.53;21047346;28;20045;-83
2022/07/22 01:56:15;;;;;;;14.07;10.73;;;;;;;18.62;100.00;100746.22;21037614;28;20044;-83
2022/07/22 02:06:17;;;;;;;17.67;11.30;;;;;;;18.48;100.00;100741.50;21029581;28;20096;-82
2022/07/22 02:16:18;;;;;;;13.30;10.40;;;;;;;18.31;100.00;100742.25;21030659;28;20387;-82
2022/07/22 02:26:20;;;;;;;16.10;9.95;;;;;;;18.26;100.00;100732.75;21025077;28;20068;-83
2022/07/22 02:36:22;;;;;;;14.85;10.40;;;;;;;18.10;100.00;100730.72;21041487;28;20397;-83
2022/07/22 02:46:23;;;;;;;13.68;9.98;;;;;;;18.00;100.00;100729.38;21042959;28;20060;-83
2022/07/22 02:56:24;;;;;;;16.50;10.50;;;;;;;18.03;100.00;100742.53;21038821;28;20122;-83
2022/07/22 03:06:26;;;;;;;16.23;10.40;;;;;;;17.93;100.00;100741.19;21041315;28;20130;-83
2022/07/22 03:16:27;;;;;;;16.58;10.82;;;;;;;17.77;100.00;100730.31;21035219;28;20045;-83
2022/07/22 03:26:29;;;;;;;15.43;10.38;;;;;;;17.89;100.00;100728.97;21036569;28;20041;-83
2022/07/22 03:36:30;;;;;;;14.52;10.40;;;;;;;17.66;100.00;100735.16;21021646;28;20144;-83
2022/07/22 03:46:31;;;;;;;16.25;10.77;;;;;;;17.57;100.00;100748.75;21003031;28;20079;-83
2022/07/22 03:56:33;;;;;;;18.33;11.13;;;;;;;17.52;100.00;100732.19;21000284;28;20053;-83
2022/07/22 04:06:34;;;;;;;16.42;11.30;;;;;;;17.46;100.00;100728.00;20996435;28;20123;-81
2022/07/22 04:16:36;;;;;;;18.50;11.35;;;;;;;17.53;100.00;100726.81;20980164;28;20044;-81
2022/07/22 04:26:37;;;;;;;17.42;12.30;;;;;;;17.44;100.00;100725.41;20995875;28;20048;-81
2022/07/22 04:36:38;;;;;;;15.77;11.30;;;;;;;17.66;100.00;100735.16;21000613;28;20037;-81
2022/07/22 04:46:40;;;;;;;18.40;11.55;;;;;;;17.80;100.00;100729.34;20990438;28;20056;-81
2022/07/22 04:56:41;;;;;;;14.88;11.00;;;;;;;18.05;100.00;100718.59;21006739;28;20048;-81
2022/07/22 05:06:44;;;;;;;14.57;11.15;;;;;;;18.04;100.00;100720.38;21005930;28;20049;-81
2022/07/22 05:16:46;;;;;;;16.55;10.98;;;;;;;18.13;100.00;100727.97;20989266;28;20116;-80
2022/07/22 05:26:47;;;;;;;17.67;11.85;;;;;;;18.36;100.00;100739.38;20985076;28;20045;-80
2022/07/22 05:36:48;;;;;;;19.45;11.40;;;;;;;18.29;100.00;100730.81;20998622;28;20413;-81
2022/07/22 05:46:50;;;;;;;17.98;11.23;;;;;;;18.71;100.00;100732.59;21017865;28;20079;-80
2022/07/22 05:56:51;;;;;;;17.33;10.43;;;;;;;18.84;100.00;100722.31;20983651;28;20056;-81
2022/07/22 06:06:53;;;;;;;15.70;9.05;;;;;;;19.05;100.00;100720.47;20999309;28;20068;-81
2022/07/22 06:16:54;;;;;;;16.75;10.30;;;;;;;19.04;100.00;100714.28;21000863;28;20513;-81
2022/07/22 06:26:55;;;;;;;14.07;9.57;;;;;;;19.48;100.00;100711.34;20978151;28;20040;-81
2022/07/22 06:36:57;;;;;;;14.20;8.90;;;;;;;19.70;100.00;100709.44;20957760;28;20041;-81
2022/07/22 06:46:58;;;;;;;16.77;8.73;;;;;;;20.03;100.00;100714.03;20903858;28;20049;-81
2022/07/22 06:57:00;;;;;;;13.95;8.57;;;;;;;19.92;100.00;100709.22;20907570;28;20048;-81
2022/07/22 07:07:01;;;;;;;15.30;8.93;;;;;;;20.13;100.00;100685.19;20902111;28;20045;-80
2022/07/22 07:17:03;;;;;;;16.08;8.60;;;;;;;20.44;100.00;100689.75;21005340;28;20083;-81
2022/07/22 07:27:05;;;;;;;17.40;10.05;;;;;;;20.51;100.00;100677.06;21015466;28;20041;-81
2022/07/22 07:37:06;;;;;;;14.70;8.38;;;;;;;20.69;100.00;100666.25;21003664;28;20096;-81
2022/07/22 07:47:07;;;;;;;13.45;8.05;;;;;;;21.18;100.00;100666.28;20948123;28;20099;-81
2022/07/22 07:57:10;;;;;;;13.15;8.70;;;;;;;21.13;100.00;100663.00;20952762;28;20048;-81
2022/07/22 08:07:14;;;;;;;14.10;8.48;;;;;;;21.38;97.71;100653.69;20934589;28;20041;-80
2022/07/22 08:17:16;;;;;;;13.52;8.93;;;;;;;21.54;98.02;100651.00;20937064;28;20044;-81
2022/07/22 08:27:18;;;;;;;15.00;8.25;;;;;;;21.90;96.06;100645.34;20996059;28;20048;-81
2022/07/22 08:37:19;;;;;;;16.38;8.25;;;;;;;21.98;94.66;100635.06;21009174;28;20127;-81
2022/07/22 08:47:21;;;;;;;11.23;7.20;;;;;;;22.55;91.14;100629.84;20984431;28;20052;-82
2022/07/22 08:57:41;;;;;;;11.50;7.97;;;;;;;22.53;90.40;100615.75;21008123;28;20083;-80
2022/07/22 09:07:42;;;;;;;17.00;8.40;;;;;;;23.02;88.57;100607.34;21013028;28;20044;-81
2022/07/22 09:17:43;;;;;;;12.25;8.35;;;;;;;23.26;86.79;100592.41;20995562;28;20052;-82
2022/07/22 09:27:45;;;;;;;14.15;8.18;;;;;;;23.45;84.32;100588.53;21005991;28;20493;-81
2022/07/22 09:37:47;;;;;;;14.27;8.95;;;;;;;23.72;83.51;100578.69;21022161;28;20055;-80
2022/07/22 09:47:49;;;;;;;14.18;7.88;;;;;;;24.24;81.67;100571.53;21007049;28;20504;-81
2022/07/22 09:57:50;;;;;;;12.45;8.10;;;;;;;24.52;78.17;100555.28;21024908;28;20128;-80
2022/07/22 10:07:52;;;;;;;12.77;8.00;;;;;;;24.72;77.37;100535.13;21021802;28;20552;-80
2022/07/22 10:17:53;;;;;;;12.65;8.50;;;;;;;24.98;74.78;100527.00;21028730;28;20048;-81
2022/07/22 10:27:55;;;;;;;13.52;8.35;;;;;;;25.26;72.22;100524.00;21014195;28;20044;-80
2022/07/22 10:37:56;;;;;;;11.35;7.00;;;;;;;25.90;67.40;100506.66;20994698;23;20139;-69
2022/07/22 10:47:57;;;;;;;13.60;7.68;;;;;;;26.34;68.12;100484.34;20908686;28;20049;-68
2022/07/22 10:57:59;;;;;;;13.23;8.20;;;;;;;26.00;65.59;100478.13;20907558;28;20053;-69
2022/07/22 11:08:00;;;;;;;13.23;8.73;;;;;;;26.39;62.91;100455.31;20906317;28;20420;-71
2022/07/22 11:18:01;;;;;;;15.93;8.32;;;;;;;26.50;64.54;100458.03;20906567;28;20063;-71
2022/07/22 11:28:03;;;;;;;14.75;7.70;;;;;;;26.64;62.99;100448.84;20906007;28;20052;-67
2022/07/22 11:38:05;;;;;;;11.10;7.95;;;;;;;26.66;61.60;100435.28;20898380;28;20124;-68
2022/07/22 11:48:07;;;;;;;9.73;6.73;;;;;;;27.25;58.35;100424.06;20821076;28;20409;-68
2022/07/22 11:58:08;;;;;;;12.45;7.68;;;;;;;27.27;57.23;100419.41;20819209;28;20369;-68
2022/07/22 12:08:10;;;;;;;11.65;6.95;;;;;;;27.40;56.74;100389.63;20817721;28;20053;-68
2022/07/22 12:18:11;;;;;;;9.38;6.93;;;;;;;27.89;53.80;100372.78;20819439;28;20398;-69
2022/07/22 12:28:12;;;;;;;9.68;6.75;;;;;;;28.18;53.74;100366.63;20820378;28;20057;-69
2022/07/22 12:38:15;;;;;;;9.60;6.57;;;;;;;28.28;50.25;100341.41;20820484;28;20525;-68
2022/07/22 12:48:17;;;;;;;;;;;;;;;28.19;52.11;100338.72;20841237;28;20087;-69
2022/07/22 12:58:19;;;;;;;11.18;7.45;;;;;;;28.66;49.67;100326.31;20828544;28;19927;-69
2022/07/22 13:08:21;;;;;;;8.50;6.93;;;;;;;28.60;48.06;100313.38;20835036;28;20603;-69
2022/07/22 13:18:24;;;;;;;11.33;6.90;;;;;;;29.24;48.35;100307.38;20840619;28;20053;-69
2022/07/22 13:28:25;;;;;;;10.80;7.20;;;;;;;29.32;46.77;100298.53;20832975;28;20410;-68
2022/07/22 13:38:27;;;;;;;13.70;6.60;;;;;;;29.57;46.93;100295.22;20831597;28;20052;-68
2022/07/22 13:48:28;;;;;;;11.02;7.35;;;;;;;29.35;46.94;100282.91;20831334;28;20432;-69
2022/07/22 13:58:30;;;;;;;8.98;6.68;;;;;;;29.42;45.66;100271.50;20830707;28;20060;-69
2022/07/22 14:08:33;;;;;;;10.07;6.38;;;;;;;29.72;44.87;100265.88;20828130;28;20096;-68
2022/07/22 14:18:35;;;;;;;9.37;6.90;;;;;;;29.71;43.80;100255.25;20839693;28;20493;-68
2022/07/22 14:28:37;;;;;;;10.67;7.20;;;;;;;29.85;43.05;100258.28;20853542;28;20068;-68
2022/07/22 14:38:39;;;;;;;9.38;7.32;;;;;;;30.09;42.03;100264.94;20828037;28;20265;-67
2022/07/22 14:48:41;;;;;;;9.85;6.50;;;;;;;30.44;41.54;100269.50;20900249;28;20060;-69
2022/07/22 14:58:42;;;;;;;8.70;6.50;;;;;;;30.41;41.92;100259.84;20903012;28;20059;-68
2022/07/22 15:08:44;;;;;;;9.38;7.05;;;;;;;30.32;41.62;100255.38;20906210;28;20055;-69
2022/07/22 15:18:45;;;;;;;8.48;6.70;;;;;;;30.13;41.81;100239.31;20927648;28;20072;-68
2022/07/22 15:28:47;;;;;;;8.77;6.50;;;;;;;29.98;42.34;100230.03;20905429;28;20140;-68
2022/07/22 15:38:48;;;;;;;7.50;6.53;;;;;;;30.25;41.50;100226.47;20905033;28;20044;-68
2022/07/22 15:48:50;;;;;;;9.50;6.53;;;;;;;30.31;41.63;100215.88;20902251;28;20066;-68
2022/07/22 16:09:29;;;;;;;7.25;6.40;;;;;;;30.83;39.43;100207.84;20851948;28;20095;-67
2022/07/22 16:19:30;;;;;;;9.38;6.45;;;;;;;31.14;39.10;100196.50;20882324;28;20045;-69
2022/07/22 16:29:32;;;;;;;14.32;8.80;;;;;;;31.22;40.28;100185.72;20812075;28;20045;-72
2022/07/22 16:39:33;;;;;;;10.53;7.23;;;;;;;31.41;38.80;100169.25;20844706;28;20084;-71
2022/07/22 16:49:35;;;;;;;9.20;6.03;;;;;;;31.31;38.72;100176.66;20893213;28;20469;-70
2022/07/22 16:59:37;;;;;;;8.57;6.22;;;;;;;30.46;39.67;100182.88;20892656;28;20053;-70
2022/07/22 17:09:38;;;;;;;8.55;6.30;;;;;;;30.09;40.86;100192.88;20892622;28;20060;-70
2022/07/22 17:19:39;;;;;;;7.70;6.15;;;;;;;30.12;42.83;100187.16;20810344;28;20124;-70
2022/07/22 17:29:41;;;;;;;9.55;6.03;;;;;;;30.14;43.77;100208.66;20810083;28;20056;-70
2022/07/22 17:39:42;;;;;;;11.73;6.38;;;;;;;29.72;46.82;100225.41;20811562;28;20490;-70
2022/07/22 17:49:43;;;;;;;8.70;5.90;;;;;;;29.04;48.55;100227.56;20840586;28;20113;-70
2022/07/22 17:59:45;;;;;;;6.70;5.38;;;;;;;28.94;49.70;100191.63;20831035;28;20051;-69
2022/07/22 18:09:46;;;;;;;8.70;6.13;;;;;;;28.81;49.40;100178.50;20822730;28;20053;-70
2022/07/22 18:19:47;;;;;;;9.82;6.57;;;;;;;28.60;55.52;100187.66;20903308;28;20055;-70
2022/07/22 18:29:49;;;;;;;7.85;6.18;;;;;;;27.95;59.64;100210.75;20902858;28;20136;-69
2022/07/22 18:39:50;;;;;;;7.85;6.65;;;;;;;27.23;65.24;100206.44;20901978;28;20060;-69
2022/07/22 18:49:52;;;;;;;10.38;6.85;;;;;;;26.86;67.62;100200.72;20900111;28;20056;-71
2022/07/22 18:59:53;;;;;;;12.05;7.70;;;;;;;26.64;72.45;100196.38;20900240;28;20053;-71
2022/07/22 19:09:55;;;;;;;10.90;7.45;;;;;;;26.40;72.98;100209.16;20892383;28;20059;-72
2022/07/22 19:19:57;;;;;;;9.40;6.53;;;;;;;26.54;71.49;100211.53;20898959;28;20048;-71
2022/07/22 19:29:58;;;;;;;11.15;8.05;;;;;;;26.34;75.34;100232.84;20898557;28;20044;-72
2022/07/22 19:39:59;;;;;;;11.45;8.82;;;;;;;26.38;75.73;100264.81;20896944;28;20056;-69
2022/07/22 19:50:02;;;;;;;10.50;8.03;;;;;;;26.30;81.79;100277.06;20897441;28;20056;-69
2022/07/22 20:00:03;;;;;;;12.10;9.63;;;;;;;26.21;85.15;100259.03;20895924;28;20057;-70
2022/07/22 20:10:04;;;;;;;12.40;8.50;;;;;;;26.15;80.93;100235.38;20895302;28;20053;-73
2022/07/22 20:20:06;;;;;;;10.82;7.28;;;;;;;26.12;74.24;100232.13;20896858;28;20140;-73
2022/07/22 20:30:08;;;;;;;10.05;7.95;;;;;;;25.98;75.90;100211.81;20922898;28;20147;-73
2022/07/22 20:40:09;;;;;;;9.68;7.63;;;;;;;25.98;81.18;100195.69;20889204;28;20056;-73
2022/07/22 20:50:10;;;;;;;9.43;7.53;;;;;;;26.05;79.03;100203.09;20884410;28;20060;-73
2022/07/22 21:00:11;;;;;;;10.75;7.22;;;;;;;26.03;79.83;100228.38;20892718;28;20049;-73
2022/07/22 21:10:15;;;;;;;11.70;7.50;;;;;;;25.60;86.14;100218.44;20827185;28;20053;-73
2022/07/22 21:20:16;;;;;;;10.70;8.55;;;;;;;25.31;89.01;100235.06;20901964;28;20468;-73
2022/07/22 21:30:17;;;;;;;12.27;8.18;;;;;;;24.88;94.88;100228.66;20904710;28;20132;-72
2022/07/22 21:40:19;;;;;;;11.48;8.65;;;;;;;24.63;95.70;100229.72;20907181;28;20064;-72
2022/07/22 21:50:21;;;;;;;12.80;9.23;;;;;;;24.62;92.98;100233.34;20906584;28;20065;-73
2022/07/22 22:00:22;;;;;;;13.90;10.32;;;;;;;24.61;92.97;100237.00;20905228;28;20057;-72
2022/07/22 22:10:23;;;;;;;12.38;10.32;;;;;;;24.37;97.03;100237.06;20911019;28;20041;-73
2022/07/22 22:20:25;;;;;;;14.43;9.98;;;;;;;24.35;97.21;100236.31;20910540;28;20049;-72
2022/07/22 22:30:26;;;;;;;13.82;9.43;;;;;;;24.13;100.00;100243.25;20908495;28;20049;-72
2022/07/22 22:40:27;;;;;;;10.43;8.93;;;;;;;24.02;100.00;100240.53;20908866;28;20071;-73
2022/07/22 22:50:29;;;;;;;11.65;8.80;;;;;;;24.00;100.00;100261.16;20909343;28;20057;-73
2022/07/22 23:00:30;;;;;;;10.50;9.20;;;;;;;23.93;100.00;100241.22;20940398;28;20060;-73
2022/07/22 23:10:31;;;;;;;13.55;9.98;;;;;;;23.87;100.00;100242.53;20917618;28;20047;-72
2022/07/22 23:20:48;;;;;;;13.23;9.80;;;;;;;23.46;100.00;100242.81;20906269;28;20460;-71
2022/07/22 23:30:49;;;;;;;10.77;8.98;;;;;;;23.58;100.00;100238.41;20905166;28;20544;-73
2022/07/22 23:40:51;;;;;;;12.95;10.82;;;;;;;23.60;100.00;100229.31;20905261;28;20049;-72
2022/07/22 23:50:52;;;;;;;13.13;9.77;;;;;;;23.56;100.00;100211.78;20903094;28;20051;-71
